Terminal Aerodrome Forecast
Issued by NWS Twin Cities, MN

Home | Current Version | Previous Version | Text Only | Print | Product List | Glossary On
Versions: 1 2 3 4 5 6 7 8 9 10 11 12 13 14 15 16
588
FTUS43 KMPX 212338
TAFEAU
TAF
KEAU 212338Z 2200/2224 20010KT P6SM SCT025 BKN120
     FM220200 27005KT P6SM SCT025 BKN120
     FM220800 31006KT P6SM SKC
     FM221600 32012G21KT P6SM SKC=

USA.gov is the U.S. government's official web portal to all federal, state and local government web resources and services.